Time;durP1;ratioP1;P1;durP2;ratioP2;P2;SDS_P1;SDS_P2;PMS_P1;PMS_P2;Temp;Humidity;BMP_temperature;BMP_pressure;BME280_temperature;BME280_humidity;BME280_pressure;Samples;Min_cycle;Max_cycle;Signal;HPM_P1;HPM_P2
2021/12/29 00:02:05;;;;;;;70.88;36.55;;;;;;;4.29;75.76;94776.03;5012953;28;20087;-76
2021/12/29 00:04:31;;;;;;;74.75;36.75;;;;;;;4.26;75.95;94781.66;5030802;28;20107;-76
2021/12/29 00:06:57;;;;;;;67.45;34.20;;;;;;;4.20;74.74;94782.25;5017866;28;20314;-76
2021/12/29 00:09:23;;;;;;;74.35;37.08;;;;;;;4.15;74.83;94790.69;5018828;28;20033;-76
2021/12/29 00:11:49;;;;;;;62.65;36.30;;;;;;;4.11;74.33;94789.31;5033682;28;20480;-77
2021/12/29 00:14:14;;;;;;;52.75;31.98;;;;;;;4.03;73.16;94791.91;5029367;28;20026;-77
2021/12/29 00:16:40;;;;;;;61.40;32.08;;;;;;;3.99;73.15;94774.63;5010455;28;20026;-78
2021/12/29 00:19:05;;;;;;;62.30;33.15;;;;;;;3.91;73.55;94768.25;5029081;28;20051;-77
2021/12/29 00:21:33;;;;;;;57.10;30.30;;;;;;;3.84;73.85;94761.88;4993828;28;20026;-76
2021/12/29 00:23:59;;;;;;;55.05;30.00;;;;;;;3.77;73.97;94771.44;4994932;28;20121;-77
2021/12/29 00:26:28;;;;;;;61.00;31.48;;;;;;;3.80;74.14;94766.69;5027837;28;20024;-78
2021/12/29 00:28:53;;;;;;;55.00;29.60;;;;;;;3.85;74.32;94779.50;5028309;28;20029;-78
2021/12/29 00:31:19;;;;;;;61.63;31.48;;;;;;;3.86;74.25;94782.94;5009983;28;20036;-78
2021/12/29 00:33:44;;;;;;;53.38;30.38;;;;;;;3.81;73.93;94786.91;5027733;28;20100;-76
2021/12/29 00:36:10;;;;;;;60.92;31.73;;;;;;;3.81;73.93;94773.66;5028317;28;20025;-76
2021/12/29 00:38:36;;;;;;;57.00;30.85;;;;;;;3.76;74.12;94767.94;5009342;28;20044;-78
2021/12/29 00:41:01;;;;;;;57.28;31.67;;;;;;;3.68;73.53;94770.50;5028358;28;20048;-77
2021/12/29 00:43:27;;;;;;;55.03;29.83;;;;;;;3.68;73.69;94766.06;5027053;28;20061;-77
2021/12/29 00:45:53;;;;;;;54.28;30.98;;;;;;;3.68;73.78;94774.00;5027457;28;20026;-78
2021/12/29 00:48:19;;;;;;;63.15;31.83;;;;;;;3.67;74.39;94767.06;5009495;28;20029;-77
2021/12/29 00:50:45;;;;;;;58.47;30.27;;;;;;;3.77;74.51;94776.75;5027478;28;20342;-75
2021/12/29 00:53:11;;;;;;;58.88;30.25;;;;;;;3.70;73.76;94782.66;5009952;28;20080;-77
2021/12/29 00:55:37;;;;;;;54.45;28.85;;;;;;;3.73;73.95;94765.59;5027113;28;20025;-76
2021/12/29 00:58:03;;;;;;;54.78;29.02;;;;;;;3.75;74.43;94768.09;5027756;28;20021;-78
2021/12/29 01:00:29;;;;;;;46.67;25.55;;;;;;;3.78;74.67;94760.69;5008483;28;20053;-76
2021/12/29 01:02:54;;;;;;;48.78;26.63;;;;;;;3.73;74.62;94755.00;5027459;28;20037;-77
2021/12/29 01:05:20;;;;;;;49.60;26.70;;;;;;;3.72;75.91;94758.63;5026672;28;20036;-76
2021/12/29 01:07:49;;;;;;;49.90;26.42;;;;;;;3.73;75.98;94759.44;5009620;28;20018;-76
2021/12/29 01:10:14;;;;;;;50.65;27.73;;;;;;;3.83;76.02;94757.56;5026841;28;20052;-80
2021/12/29 01:12:46;;;;;;;48.20;26.90;;;;;;;3.93;75.68;94765.47;5027115;28;20018;-77
2021/12/29 01:15:14;;;;;;;45.88;26.48;;;;;;;3.95;75.76;94758.16;5027347;28;20022;-78
2021/12/29 01:17:40;;;;;;;47.28;25.88;;;;;;;3.96;76.53;94754.53;5026396;28;20025;-78
2021/12/29 01:20:06;;;;;;;51.38;28.23;;;;;;;4.01;76.52;94757.56;5009932;28;20025;-78
2021/12/29 01:22:31;;;;;;;48.90;27.13;;;;;;;4.01;75.77;94754.91;5008553;28;20387;-77
2021/12/29 01:24:57;;;;;;;40.80;23.60;;;;;;;4.03;75.84;94750.28;5027031;28;20033;-78
2021/12/29 01:27:22;;;;;;;37.92;23.05;;;;;;;4.04;75.68;94746.66;5009154;28;20026;-77
2021/12/29 01:29:47;;;;;;;39.70;23.50;;;;;;;4.11;74.98;94746.03;5027639;28;20033;-77
2021/12/29 01:32:13;;;;;;;44.15;23.17;;;;;;;4.11;74.04;94741.53;5027195;28;20083;-77
2021/12/29 01:34:38;;;;;;;38.72;22.50;;;;;;;4.15;74.46;94745.56;5026736;28;20544;-77
2021/12/29 01:37:04;;;;;;;39.15;21.00;;;;;;;4.24;74.71;94740.31;5027321;28;20033;-76
2021/12/29 01:39:29;;;;;;;37.22;19.83;;;;;;;4.31;74.67;94742.19;5026392;28;20029;-78
2021/12/29 01:41:56;;;;;;;34.85;20.55;;;;;;;4.31;75.10;94741.34;5009706;28;20507;-77
2021/12/29 01:44:24;;;;;;;34.33;19.83;;;;;;;4.32;74.66;94730.59;5026033;28;20546;-77
2021/12/29 01:46:49;;;;;;;34.33;19.25;;;;;;;4.42;74.59;94727.00;5027025;28;20029;-77
2021/12/29 01:49:15;;;;;;;31.20;19.17;;;;;;;4.41;74.60;94714.72;5008294;28;20095;-76
2021/12/29 01:51:48;;;;;;;31.70;19.60;;;;;;;4.50;74.47;94708.44;5009333;28;20108;-78
2021/12/29 01:54:17;;;;;;;34.67;20.80;;;;;;;4.44;75.05;94717.06;5027081;28;20028;-77
2021/12/29 01:56:44;;;;;;;36.53;22.52;;;;;;;4.41;75.26;94709.41;5025515;28;20412;-79
2021/12/29 01:59:09;;;;;;;40.13;21.95;;;;;;;4.41;74.52;94693.47;5026978;28;20049;-75
2021/12/29 02:01:35;;;;;;;41.08;24.13;;;;;;;4.36;74.45;94701.06;5025773;28;20479;-77
2021/12/29 02:04:00;;;;;;;41.58;24.33;;;;;;;4.39;73.64;94684.81;5026757;28;20459;-76
2021/12/29 02:06:26;;;;;;;43.75;24.95;;;;;;;4.36;74.36;94679.81;5026258;28;20481;-77
2021/12/29 02:08:54;;;;;;;39.10;23.33;;;;;;;4.38;73.98;94669.88;5026940;28;20028;-77
2021/12/29 02:11:28;;;;;;;42.92;24.13;;;;;;;4.28;75.12;94670.84;5026295;28;20033;-77
2021/12/29 02:13:54;;;;;;;41.45;23.52;;;;;;;4.28;74.95;94667.34;5009360;28;20029;-78
2021/12/29 02:16:19;;;;;;;40.42;23.23;;;;;;;4.24;75.63;94656.19;5026714;28;20417;-77
2021/12/29 02:18:52;;;;;;;39.25;23.45;;;;;;;4.23;74.39;94657.19;5025456;28;20079;-76
2021/12/29 02:21:20;;;;;;;40.65;24.02;;;;;;;4.27;75.32;94657.72;5026564;28;20030;-77
2021/12/29 02:24:03;;;;;;;41.72;25.50;;;;;;;4.28;74.03;94665.53;5026222;28;20535;-77
2021/12/29 02:26:30;;;;;;;45.97;25.50;;;;;;;4.24;74.28;94661.50;5026000;28;20022;-77
2021/12/29 02:28:56;;;;;;;39.53;22.40;;;;;;;4.27;73.68;94666.50;5008884;28;20036;-77
2021/12/29 02:31:24;;;;;;;37.92;20.38;;;;;;;4.38;73.22;94664.56;5007631;28;20029;-78
2021/12/29 02:33:51;;;;;;;35.67;20.83;;;;;;;4.27;73.49;94668.34;5026929;28;20026;-78
2021/12/29 02:36:17;;;;;;;37.33;22.05;;;;;;;4.24;73.43;94661.50;5025172;28;20021;-76
2021/12/29 02:38:47;;;;;;;35.17;21.15;;;;;;;4.20;74.78;94662.81;5008615;28;20026;-76
2021/12/29 02:41:13;;;;;;;33.53;20.67;;;;;;;4.22;74.21;94652.88;5025594;28;20026;-77
2021/12/29 02:43:40;;;;;;;33.80;19.95;;;;;;;4.27;74.48;94657.72;4992237;28;20217;-76
2021/12/29 02:46:11;;;;;;;34.65;21.67;;;;;;;4.30;74.78;94655.59;5026517;28;20032;-77
2021/12/29 02:48:39;;;;;;;41.42;23.05;;;;;;;4.27;75.50;94647.09;4992777;28;20101;-77
2021/12/29 02:51:07;;;;;;;36.15;21.60;;;;;;;4.25;75.55;94641.94;5009326;28;20037;-77
2021/12/29 02:53:33;;;;;;;36.50;21.63;;;;;;;4.29;75.14;94648.59;5007798;28;20025;-78
2021/12/29 02:55:58;;;;;;;37.75;21.80;;;;;;;4.35;76.11;94656.94;5008591;28;20167;-78
2021/12/29 02:58:24;;;;;;;39.08;22.17;;;;;;;4.32;75.87;94644.81;5007118;28;20032;-76
2021/12/29 03:00:50;;;;;;;36.80;21.33;;;;;;;4.38;75.90;94646.84;5008373;28;20050;-78
2021/12/29 03:03:16;;;;;;;40.80;22.50;;;;;;;4.40;76.40;94647.50;5008090;28;20428;-76
2021/12/29 03:05:42;;;;;;;39.45;22.83;;;;;;;4.37;76.73;94641.69;5025351;28;20413;-77
2021/12/29 03:08:07;;;;;;;34.58;22.08;;;;;;;4.35;76.19;94641.84;5027212;28;20528;-77
2021/12/29 03:10:32;;;;;;;39.92;22.85;;;;;;;4.42;75.93;94637.56;5028591;28;20032;-77
2021/12/29 03:12:58;;;;;;;38.50;21.77;;;;;;;4.38;75.90;94633.56;5030359;28;20044;-77
2021/12/29 03:15:23;;;;;;;33.28;21.20;;;;;;;4.44;75.73;94643.53;5028579;28;20435;-77
2021/12/29 03:17:49;;;;;;;33.72;21.83;;;;;;;4.47;75.19;94644.19;5012105;28;20443;-77
2021/12/29 03:20:14;;;;;;;34.03;21.38;;;;;;;4.44;75.99;94629.44;5029066;28;20411;-77
2021/12/29 03:22:40;;;;;;;32.15;20.65;;;;;;;4.52;75.50;94625.97;5029254;28;20389;-77
2021/12/29 03:25:06;;;;;;;37.47;22.17;;;;;;;4.56;75.30;94628.16;5030044;28;20028;-77
2021/12/29 03:27:32;;;;;;;36.90;21.00;;;;;;;4.40;76.05;94622.78;5010868;28;20415;-75
2021/12/29 03:29:57;;;;;;;36.45;21.65;;;;;;;4.43;75.33;94617.16;5029738;28;20029;-76
2021/12/29 03:32:37;;;;;;;37.88;22.48;;;;;;;4.37;76.10;94620.44;5028505;28;20044;-77
2021/12/29 03:35:02;;;;;;;33.78;21.23;;;;;;;4.40;75.95;94620.13;5029915;28;20528;-77
2021/12/29 03:37:28;;;;;;;42.28;23.05;;;;;;;4.38;76.20;94614.97;5029319;28;20024;-78
2021/12/29 03:39:53;;;;;;;35.95;22.33;;;;;;;4.42;76.00;94616.31;5029340;28;20030;-77
2021/12/29 03:42:18;;;;;;;42.17;23.77;;;;;;;4.37;75.93;94617.78;5029023;28;20401;-78
2021/12/29 03:44:44;;;;;;;44.55;23.65;;;;;;;4.37;76.21;94612.47;5028216;28;20463;-77
2021/12/29 03:47:09;;;;;;;40.20;23.33;;;;;;;4.39;75.68;94607.81;5029389;28;20468;-77
2021/12/29 03:49:35;;;;;;;37.70;22.35;;;;;;;4.44;75.57;94609.03;5027878;28;20561;-76
2021/12/29 03:52:00;;;;;;;36.75;22.48;;;;;;;4.40;75.62;94609.50;5029500;28;20530;-78
2021/12/29 03:54:25;;;;;;;40.95;23.05;;;;;;;4.37;76.63;94602.66;5028135;28;20064;-76
2021/12/29 03:56:51;;;;;;;38.75;23.80;;;;;;;4.31;76.64;94601.50;5028736;28;20499;-77
2021/12/29 03:59:16;;;;;;;37.63;23.90;;;;;;;4.36;77.59;94605.47;5028115;28;20053;-77
2021/12/29 04:01:42;;;;;;;45.58;24.75;;;;;;;4.43;76.89;94591.41;5028462;28;20055;-76
2021/12/29 04:04:08;;;;;;;39.58;24.13;;;;;;;4.41;76.89;94597.88;5028704;28;20041;-77
2021/12/29 04:06:33;;;;;;;44.17;25.50;;;;;;;4.46;76.94;94606.22;5028035;28;20033;-77
2021/12/29 04:08:59;;;;;;;47.65;26.10;;;;;;;4.48;76.32;94603.38;5011011;28;20025;-78
2021/12/29 04:11:24;;;;;;;50.60;27.25;;;;;;;4.54;77.01;94600.94;5027544;28;20029;-78
2021/12/29 04:13:50;;;;;;;44.97;26.25;;;;;;;4.54;77.01;94597.44;5010956;28;20022;-77
2021/12/29 04:16:17;;;;;;;44.58;26.83;;;;;;;4.54;77.08;94598.28;5009777;28;20018;-77
2021/12/29 04:19:05;;;;;;;48.00;25.80;;;;;;;4.60;77.35;94603.91;4994642;28;20022;-77
2021/12/29 04:21:30;;;;;;;44.28;25.13;;;;;;;4.61;76.27;94608.25;5013022;28;20029;-77
2021/12/29 04:23:56;;;;;;;37.60;22.88;;;;;;;4.62;75.47;94599.28;5009779;28;20033;-77
2021/12/29 04:26:21;;;;;;;35.55;23.02;;;;;;;4.66;75.79;94598.81;5010973;28;20017;-77
2021/12/29 04:28:47;;;;;;;41.97;23.75;;;;;;;4.73;76.29;94601.66;5027289;28;20036;-77
2021/12/29 04:31:12;;;;;;;43.38;25.75;;;;;;;4.76;76.85;94598.66;5010932;28;20079;-77
2021/12/29 04:33:38;;;;;;;40.78;24.58;;;;;;;4.68;76.90;94602.13;5027596;28;20132;-75
2021/12/29 04:36:04;;;;;;;38.47;24.02;;;;;;;4.74;76.50;94600.66;5028316;28;20036;-76
2021/12/29 04:38:29;;;;;;;36.28;21.80;;;;;;;4.89;75.26;94606.19;5028058;28;20128;-77
2021/12/29 04:40:55;;;;;;;42.80;22.95;;;;;;;4.85;75.53;94604.00;5027857;28;20030;-76
2021/12/29 04:43:22;;;;;;;40.67;22.88;;;;;;;4.79;75.92;94605.47;5010387;28;20026;-77
2021/12/29 04:45:48;;;;;;;36.85;21.52;;;;;;;4.74;76.13;94613.94;5027117;28;20048;-77
2021/12/29 04:48:14;;;;;;;36.75;21.33;;;;;;;4.75;75.65;94604.16;5028611;28;20425;-76
2021/12/29 04:50:51;;;;;;;37.38;21.73;;;;;;;4.79;75.15;94616.09;5026911;28;20037;-77
2021/12/29 04:53:17;;;;;;;37.35;21.95;;;;;;;4.78;74.67;94617.09;5028317;28;20036;-77
2021/12/29 04:55:45;;;;;;;38.53;22.67;;;;;;;4.76;74.85;94613.78;5027449;28;20025;-76
2021/12/29 04:58:11;;;;;;;38.22;22.95;;;;;;;4.75;74.79;94609.47;5009412;28;20503;-77
2021/12/29 05:00:37;;;;;;;40.83;22.77;;;;;;;4.76;74.66;94611.97;5009950;28;20053;-77
2021/12/29 05:03:03;;;;;;;41.53;24.52;;;;;;;4.69;74.43;94611.75;5026984;28;20503;-76
2021/12/29 05:10:41;;;;;;;40.33;22.98;;;;;;;4.76;74.36;94606.63;5027674;28;20091;-76
2021/12/29 05:13:06;;;;;;;38.28;22.80;;;;;;;4.78;74.29;94612.63;5009443;28;20025;-77
2021/12/29 05:15:31;;;;;;;38.42;22.70;;;;;;;4.80;74.95;94617.78;5010100;28;20088;-77
2021/12/29 05:17:58;;;;;;;41.17;23.55;;;;;;;4.70;74.89;94613.44;5027666;28;20033;-78
2021/12/29 05:20:26;;;;;;;37.53;23.25;;;;;;;4.70;75.60;94617.91;5009095;28;20022;-77
2021/12/29 05:22:51;;;;;;;37.88;23.55;;;;;;;4.64;75.72;94622.03;5010469;28;20386;-76
2021/12/29 05:25:17;;;;;;;42.42;24.23;;;;;;;4.66;75.56;94619.25;5025960;28;20033;-78
2021/12/29 05:27:42;;;;;;;43.47;24.38;;;;;;;4.66;75.14;94625.38;5027879;28;20076;-78
2021/12/29 05:30:08;;;;;;;43.55;23.40;;;;;;;4.71;76.08;94622.22;5026284;28;20029;-77
2021/12/29 05:32:33;;;;;;;37.50;23.00;;;;;;;4.79;75.91;94621.41;5026273;28;20045;-78
2021/12/29 05:34:59;;;;;;;41.22;22.92;;;;;;;4.81;76.13;94624.75;5027085;28;20021;-78
2021/12/29 05:37:24;;;;;;;39.45;23.10;;;;;;;4.81;75.94;94622.09;5026691;28;20040;-78
2021/12/29 05:39:50;;;;;;;40.50;23.55;;;;;;;4.84;76.52;94623.63;5009971;28;20083;-77
2021/12/29 05:42:15;;;;;;;40.10;22.33;;;;;;;4.84;75.63;94624.44;5026023;28;20459;-77
2021/12/29 05:44:41;;;;;;;38.47;22.95;;;;;;;4.87;76.31;94626.75;5027857;28;20476;-77
2021/12/29 05:47:06;;;;;;;37.75;23.25;;;;;;;4.88;75.84;94619.63;5008091;28;20378;-77
2021/12/29 05:49:32;;;;;;;39.03;24.40;;;;;;;4.86;75.16;94616.28;5032550;28;20476;-78
2021/12/29 05:51:57;;;;;;;41.80;23.65;;;;;;;4.87;76.18;94623.28;5033292;28;20044;-78
2021/12/29 05:54:23;;;;;;;41.20;24.55;;;;;;;4.89;75.76;94629.25;5034653;28;20028;-77
2021/12/29 05:56:48;;;;;;;44.95;26.08;;;;;;;4.94;75.30;94626.94;5033316;28;20408;-77
2021/12/29 05:59:14;;;;;;;44.83;26.92;;;;;;;4.98;76.28;94624.81;5031575;28;20045;-77
2021/12/29 06:01:40;;;;;;;47.58;26.88;;;;;;;5.02;76.01;94619.00;5037472;28;20039;-77
2021/12/29 06:04:05;;;;;;;49.22;27.00;;;;;;;5.04;76.08;94625.00;5017726;28;20105;-77
2021/12/29 06:06:31;;;;;;;42.08;26.35;;;;;;;5.11;75.89;94624.34;5036966;28;20048;-78
2021/12/29 06:08:56;;;;;;;44.22;28.20;;;;;;;5.11;76.15;94624.34;5016136;28;20060;-77
2021/12/29 06:11:22;;;;;;;43.28;26.40;;;;;;;5.12;76.08;94623.34;5028562;28;20064;-77
2021/12/29 06:13:47;;;;;;;44.63;25.27;;;;;;;5.14;75.99;94624.81;5008404;28;20079;-77
2021/12/29 06:16:12;;;;;;;43.33;25.65;;;;;;;5.12;75.63;94626.84;5026356;28;20033;-77
2021/12/29 06:18:38;;;;;;;42.38;25.52;;;;;;;5.15;75.77;94620.34;5009009;28;20022;-77
2021/12/29 06:21:03;;;;;;;43.40;25.25;;;;;;;5.13;75.38;94628.50;5025704;28;20026;-78
2021/12/29 06:23:29;;;;;;;41.15;24.15;;;;;;;5.17;75.59;94629.00;5008927;28;20026;-77
2021/12/29 06:25:54;;;;;;;39.95;24.10;;;;;;;5.13;75.23;94630.31;5026151;28;20075;-77
2021/12/29 06:28:20;;;;;;;40.60;25.33;;;;;;;5.14;75.41;94639.97;5026433;28;20040;-77
2021/12/29 06:30:45;;;;;;;40.80;24.40;;;;;;;5.15;74.85;94644.28;5007672;28;20021;-77
2021/12/29 06:33:10;;;;;;;43.53;25.73;;;;;;;5.25;75.55;94654.78;5026473;28;20038;-77
2021/12/29 06:35:36;;;;;;;42.45;23.48;;;;;;;5.24;75.69;94659.25;5025481;28;20386;-77
2021/12/29 06:38:01;;;;;;;39.28;23.33;;;;;;;5.35;76.27;94662.59;5025919;28;20488;-78
2021/12/29 06:40:27;;;;;;;37.28;22.17;;;;;;;5.39;76.10;94663.94;5026070;28;20025;-77
2021/12/29 06:42:52;;;;;;;38.47;22.25;;;;;;;5.41;76.31;94667.25;5026838;28;20033;-78
2021/12/29 06:45:19;;;;;;;41.80;22.95;;;;;;;5.44;76.19;94658.97;5030665;28;20025;-77
2021/12/29 06:47:44;;;;;;;37.05;23.23;;;;;;;5.44;76.44;94656.28;5029244;28;20124;-78
2021/12/29 06:50:10;;;;;;;36.38;22.40;;;;;;;5.53;75.75;94657.97;5030683;28;20056;-77
2021/12/29 06:52:35;;;;;;;40.45;24.00;;;;;;;5.59;76.06;94663.63;4994978;28;20044;-77
2021/12/29 06:55:01;;;;;;;40.13;23.30;;;;;;;5.61;75.79;94666.97;5012465;28;20029;-77
2021/12/29 06:57:26;;;;;;;41.40;24.27;;;;;;;5.67;75.46;94672.44;5029825;28;20503;-77
2021/12/29 06:59:52;;;;;;;40.58;23.60;;;;;;;5.70;75.41;94673.94;5011593;28;20053;-77
2021/12/29 07:02:18;;;;;;;38.13;24.00;;;;;;;5.66;75.33;94664.63;5030056;28;20092;-79
2021/12/29 07:04:44;;;;;;;40.67;22.30;;;;;;;5.67;75.46;94667.09;5028778;28;20025;-77
2021/12/29 07:07:09;;;;;;;43.22;25.73;;;;;;;5.71;75.67;94666.81;5030325;28;20029;-77
2021/12/29 07:09:35;;;;;;;41.63;25.02;;;;;;;5.73;75.65;94664.78;5028411;28;20033;-77
2021/12/29 07:12:00;;;;;;;45.53;26.27;;;;;;;5.71;75.56;94664.16;5012278;28;20535;-77
2021/12/29 07:14:26;;;;;;;48.65;28.10;;;;;;;5.70;75.74;94665.97;4994818;28;20037;-77
2021/12/29 07:16:51;;;;;;;47.65;26.75;;;;;;;5.70;75.26;94665.97;5028956;28;20033;-76
2021/12/29 07:19:17;;;;;;;56.47;27.80;;;;;;;5.65;75.17;94674.44;5029868;28;20029;-76
2021/12/29 07:21:43;;;;;;;44.92;25.55;;;;;;;5.68;75.40;94673.28;5010823;28;20025;-77
2021/12/29 07:24:09;;;;;;;41.20;24.13;;;;;;;5.70;75.16;94676.59;5012191;28;20030;-77
2021/12/29 07:26:35;;;;;;;41.83;24.77;;;;;;;5.69;75.26;94677.63;5028116;28;20018;-78
2021/12/29 07:29:00;;;;;;;44.42;24.52;;;;;;;5.67;75.77;94671.63;5012019;28;20053;-78
2021/12/29 07:31:27;;;;;;;42.67;25.30;;;;;;;5.73;76.00;94675.44;5010789;28;20032;-76
2021/12/29 07:33:52;;;;;;;45.20;25.15;;;;;;;5.74;75.38;94679.78;5029433;28;20034;-78
2021/12/29 07:36:18;;;;;;;41.38;23.30;;;;;;;5.84;75.63;94671.59;5011012;28;20091;-78
2021/12/29 07:38:43;;;;;;;41.88;24.42;;;;;;;5.84;75.72;94672.44;5028522;28;20040;-78
2021/12/29 07:41:09;;;;;;;42.20;24.63;;;;;;;5.81;76.04;94672.78;5011565;28;20497;-78
2021/12/29 07:43:36;;;;;;;43.45;24.30;;;;;;;5.88;75.24;94667.63;5010146;28;20033;-78
2021/12/29 07:46:02;;;;;;;46.67;24.95;;;;;;;5.85;75.50;94667.97;5029563;28;20064;-78
2021/12/29 07:48:30;;;;;;;40.88;25.00;;;;;;;5.86;76.26;94669.63;5028137;28;20080;-77
2021/12/29 07:50:55;;;;;;;42.38;24.25;;;;;;;5.86;76.10;94666.97;5029155;28;20053;-77
2021/12/29 07:53:21;;;;;;;40.55;23.92;;;;;;;5.92;76.23;94671.63;5028172;28;20034;-77
2021/12/29 07:55:46;;;;;;;47.10;25.85;;;;;;;5.98;75.53;94673.59;5009963;28;20033;-79
2021/12/29 07:58:12;;;;;;;47.78;27.80;;;;;;;5.96;75.92;94680.94;5030192;28;20666;-78
2021/12/29 08:00:37;;;;;;;46.85;28.00;;;;;;;6.01;75.42;94678.59;5032500;28;20050;-77
2021/12/29 08:03:03;;;;;;;47.30;28.48;;;;;;;6.01;76.10;94675.94;5015363;28;20121;-77
2021/12/29 08:05:28;;;;;;;50.60;29.38;;;;;;;6.03;75.71;94673.13;5014480;28;20029;-78
2021/12/29 08:07:53;;;;;;;51.70;29.77;;;;;;;6.02;76.06;94674.09;5032332;28;20030;-77
2021/12/29 08:10:19;;;;;;;51.25;29.25;;;;;;;6.04;75.61;94678.31;5027992;28;20036;-77
2021/12/29 08:12:44;;;;;;;51.08;29.08;;;;;;;6.06;76.07;94676.28;5029260;28;20029;-78
2021/12/29 08:15:11;;;;;;;50.35;29.52;;;;;;;6.08;75.79;94672.66;5027947;28;20029;-77
2021/12/29 08:17:37;;;;;;;50.20;29.55;;;;;;;6.09;76.50;94675.16;5011134;28;20040;-78
2021/12/29 08:20:04;;;;;;;49.10;28.55;;;;;;;6.13;75.60;94670.28;5010676;28;20025;-78
2021/12/29 08:22:29;;;;;;;48.38;26.90;;;;;;;6.14;76.10;94677.31;5010031;28;20033;-79
2021/12/29 08:24:54;;;;;;;49.85;29.58;;;;;;;6.15;75.58;94673.63;5028559;28;20076;-77
2021/12/29 08:27:20;;;;;;;52.20;29.60;;;;;;;6.17;75.49;94677.78;5009737;28;20511;-76
2021/12/29 08:29:45;;;;;;;54.95;31.05;;;;;;;6.18;75.73;94678.63;5028714;28;20029;-77
2021/12/29 08:32:11;;;;;;;56.45;31.52;;;;;;;6.22;75.69;94674.63;5026630;28;20045;-77
2021/12/29 08:34:36;;;;;;;48.80;29.40;;;;;;;6.27;75.45;94680.25;5028624;28;20021;-77
2021/12/29 08:37:02;;;;;;;58.45;32.15;;;;;;;6.30;75.42;94676.44;5027645;28;20033;-77
2021/12/29 08:39:27;;;;;;;52.38;30.73;;;;;;;6.33;75.58;94675.28;5027941;28;20029;-77
2021/12/29 08:41:53;;;;;;;51.95;28.55;;;;;;;6.38;75.73;94670.28;5010458;28;20034;-77
2021/12/29 08:44:18;;;;;;;45.55;27.42;;;;;;;6.42;75.53;94679.56;5027579;28;20028;-76
2021/12/29 08:46:44;;;;;;;50.22;26.23;;;;;;;6.47;75.11;94676.41;5028646;28;20033;-77
2021/12/29 08:49:10;;;;;;;49.58;29.35;;;;;;;6.43;75.73;94676.75;5026627;28;20033;-77
2021/12/29 08:51:35;;;;;;;45.53;26.73;;;;;;;6.44;75.90;94677.59;5028118;28;20026;-77
2021/12/29 08:54:01;;;;;;;50.40;28.15;;;;;;;6.51;75.78;94665.22;5027095;28;20033;-78
2021/12/29 08:56:26;;;;;;;43.80;25.45;;;;;;;6.47;75.81;94671.91;5010252;28;20029;-78
2021/12/29 08:58:52;;;;;;;44.83;26.58;;;;;;;6.54;75.53;94666.75;5027872;28;20029;-78
2021/12/29 09:01:18;;;;;;;47.42;25.70;;;;;;;6.53;75.83;94663.22;5026563;28;20049;-78
2021/12/29 09:03:43;;;;;;;44.03;25.33;;;;;;;6.58;75.75;94662.72;5027797;28;20032;-78
2021/12/29 09:06:09;;;;;;;39.67;24.60;;;;;;;6.60;75.61;94658.06;5008641;28;20022;-78
2021/12/29 09:08:35;;;;;;;39.28;23.67;;;;;;;6.60;75.74;94659.88;5010311;28;20436;-78
2021/12/29 09:11:00;;;;;;;41.55;23.40;;;;;;;6.60;75.86;94654.56;5025934;28;20037;-77
2021/12/29 09:13:26;;;;;;;43.58;23.88;;;;;;;6.65;75.69;94644.22;5028064;28;20079;-78
2021/12/29 09:15:56;;;;;;;60.00;30.95;;;;;;;6.75;74.90;94642.19;5026606;28;20029;-78
2021/12/29 09:18:23;;;;;;;58.83;31.17;;;;;;;6.76;75.23;94638.50;4994125;28;20057;-77
2021/12/29 09:20:48;;;;;;;53.80;29.50;;;;;;;6.80;75.09;94633.69;5027400;28;20034;-76
2021/12/29 09:23:14;;;;;;;46.17;26.13;;;;;;;6.84;75.20;94629.66;5026147;28;20534;-76
2021/12/29 09:25:40;;;;;;;46.17;27.65;;;;;;;6.88;75.39;94622.94;5027530;28;20021;-76
2021/12/29 09:28:06;;;;;;;46.00;27.45;;;;;;;6.95;75.57;94624.94;5007902;28;20053;-77
2021/12/29 09:30:32;;;;;;;45.13;25.98;;;;;;;6.98;75.23;94620.06;5027434;28;20021;-78
2021/12/29 09:32:58;;;;;;;46.72;26.20;;;;;;;7.10;74.88;94623.19;5008434;28;20029;-77
2021/12/29 09:35:24;;;;;;;49.63;28.80;;;;;;;7.11;74.73;94618.69;5009283;28;20471;-77
2021/12/29 09:37:50;;;;;;;57.55;32.13;;;;;;;7.12;74.77;94623.84;5009022;28;20424;-78
2021/12/29 09:40:16;;;;;;;56.70;31.85;;;;;;;7.13;74.55;94624.66;5008641;28;20079;-79
2021/12/29 09:42:41;;;;;;;60.97;32.83;;;;;;;7.14;74.73;94618.34;5009678;28;20484;-79
2021/12/29 09:45:08;;;;;;;58.30;31.40;;;;;;;7.21;74.39;94618.44;5008041;28;20033;-78
2021/12/29 09:47:33;;;;;;;56.42;30.55;;;;;;;7.22;74.68;94615.59;5027246;28;20025;-76
2021/12/29 09:49:59;;;;;;;53.08;28.27;;;;;;;7.26;74.77;94614.25;5008913;28;20033;-77
2021/12/29 09:52:29;;;;;;;48.88;27.88;;;;;;;7.29;74.95;94618.41;5009399;28;20093;-77
2021/12/29 09:54:56;;;;;;;49.05;28.35;;;;;;;7.33;74.80;94610.88;5026408;28;20061;-78
2021/12/29 09:57:21;;;;;;;51.45;28.58;;;;;;;7.32;74.90;94609.22;5008598;28;20454;-77
2021/12/29 09:59:47;;;;;;;47.25;26.60;;;;;;;7.37;75.02;94609.50;5026714;28;20533;-78
2021/12/29 10:02:12;;;;;;;43.30;26.58;;;;;;;7.41;74.85;94605.50;5025367;28;20025;-77
2021/12/29 10:04:37;;;;;;;49.03;28.02;;;;;;;7.45;74.77;94603.31;5027290;28;20819;-77
2021/12/29 10:07:29;;;;;;;43.50;27.20;;;;;;;7.48;74.99;94598.44;5025688;28;20485;-77
2021/12/29 10:09:55;;;;;;;44.15;25.80;;;;;;;7.48;74.87;94597.63;5004334;28;20416;-78
2021/12/29 10:12:22;;;;;;;45.00;25.85;;;;;;;7.49;75.21;94593.94;5025948;28;20036;-78
2021/12/29 10:14:48;;;;;;;40.13;23.52;;;;;;;7.55;74.84;94595.88;5026095;28;20021;-75
2021/12/29 10:17:13;;;;;;;40.10;23.73;;;;;;;7.53;74.82;94596.06;5028038;28;20025;-78
2021/12/29 10:19:39;;;;;;;39.15;23.10;;;;;;;7.59;74.98;94591.88;5008950;28;20021;-77
2021/12/29 10:22:04;;;;;;;42.17;24.13;;;;;;;7.57;75.16;94591.19;5027035;28;20395;-78
2021/12/29 10:24:30;;;;;;;38.63;24.08;;;;;;;7.63;74.95;94589.66;5007018;28;20432;-77
2021/12/29 10:26:56;;;;;;;36.47;22.65;;;;;;;7.74;74.57;94591.88;5026708;28;20832;-78
2021/12/29 10:29:21;;;;;;;38.78;23.58;;;;;;;7.69;74.69;94583.59;5025208;28;20404;-77
2021/12/29 10:31:57;;;;;;;37.08;23.08;;;;;;;7.63;74.78;94578.97;5008794;28;20511;-78
2021/12/29 10:34:26;;;;;;;41.30;23.33;;;;;;;7.63;75.10;94574.47;5008624;28;20105;-78
2021/12/29 10:37:04;;;;;;;42.50;25.08;;;;;;;7.63;75.60;94578.97;5025345;28;20545;-76
2021/12/29 10:39:44;;;;;;;43.40;23.55;;;;;;;7.71;74.34;94573.56;5026710;28;20028;-77
2021/12/29 10:42:14;;;;;;;39.47;23.70;;;;;;;7.72;75.10;94569.06;4976508;28;20135;-77
2021/12/29 10:44:46;;;;;;;42.10;24.33;;;;;;;7.75;74.75;94564.19;5009229;28;20091;-78
2021/12/29 10:47:13;;;;;;;47.50;25.25;;;;;;;7.62;75.62;94572.81;5026305;28;20306;-78
2021/12/29 10:49:50;;;;;;;40.67;24.27;;;;;;;7.63;75.39;94568.28;5007575;28;20026;-76
2021/12/29 10:52:16;;;;;;;38.13;23.63;;;;;;;7.64;75.27;94570.78;5026704;28;20423;-77
2021/12/29 10:54:41;;;;;;;36.75;22.80;;;;;;;7.65;75.24;94567.13;5006695;28;20021;-77
2021/12/29 10:57:09;;;;;;;37.60;23.60;;;;;;;7.68;75.34;94555.25;5026474;28;20396;-78
2021/12/29 10:59:37;;;;;;;41.00;23.58;;;;;;;7.66;75.09;94559.91;5024771;28;20516;-79
2021/12/29 11:02:04;;;;;;;40.67;23.90;;;;;;;7.71;75.36;94556.72;4992545;28;20038;-79
2021/12/29 11:04:29;;;;;;;37.63;22.25;;;;;;;7.75;75.18;94544.69;5008232;28;20025;-77
2021/12/29 11:06:59;;;;;;;45.30;25.77;;;;;;;7.85;74.61;94549.75;5007520;28;20029;-78
2021/12/29 11:09:27;;;;;;;42.17;24.75;;;;;;;7.86;74.74;94546.06;5026843;28;20091;-77
2021/12/29 11:11:52;;;;;;;46.47;25.13;;;;;;;7.78;75.50;94545.16;5024366;28;20032;-77
2021/12/29 11:14:29;;;;;;;49.78;25.63;;;;;;;7.76;75.36;94541.81;5026414;28;20471;-78
2021/12/29 11:17:21;;;;;;;44.63;25.25;;;;;;;7.79;75.32;94538.78;5024698;28;20030;-78
2021/12/29 11:19:56;;;;;;;42.90;25.52;;;;;;;7.78;75.68;94533.63;5025348;28;20033;-77
2021/12/29 11:22:23;;;;;;;49.83;27.30;;;;;;;7.81;75.32;94532.44;5026197;28;20026;-78
2021/12/29 11:24:57;;;;;;;45.40;27.73;;;;;;;7.77;75.28;94530.13;4990470;28;20045;-78
2021/12/29 11:27:22;;;;;;;50.70;27.55;;;;;;;7.86;75.20;94524.72;5008863;28;20026;-76